This is the latest recevied weather packets stored in our database for station/object F6JSP-13. If no packets are shown the sender has not sent any weather packets the latest 10 day(s).
| Time | Temp. | Humidity | Pressure | Rain* | Wind** | Luminosity | Snow |
|---|---|---|---|---|---|---|---|
| 1777799104 | 14.44° C | 99% | 1009.7 hPa | 0 mm | - | 48 W/m² | - |
| 1777798805 | 13.89° C | 99% | 1009.7 hPa | 0 mm | - | 64 W/m² | - |
| 1777797005 | 13.89° C | 99% | 1009.8 hPa | 1.02 mm | - | 44 W/m² | - |
| 1777789205 | 13.33° C | 99% | 1009.5 hPa | 0.51 mm | - | 6 W/m² | - |
| 1777785605 | 13.33° C | 99% | 1009.2 hPa | 0 mm | - | 17 W/m² | - |
| 1777785005 | 13.33° C | 99% | 1009.3 hPa | 0 mm | - | 4 W/m² | - |
| 1777784705 | 13.33° C | 99% | 1009.3 hPa | 0 mm | - | 1 W/m² | - |
| 1777784404 | 13.33° C | 99% | 1009 hPa | 0 mm | - | 2 W/m² | - |
| 1777781705 | 13.33° C | 99% | 1009.1 hPa | 0 mm | - | 0 W/m² | - |
| 1777781406 | 13.33° C | 99% | 1009.3 hPa | 0 mm | - | 0 W/m² | - |
| 1777780206 | 13.33° C | 99% | 1009.3 hPa | 0 mm | - | 0 W/m² | - |
| 1777776906 | 13.89° C | 99% | 1009.2 hPa | 0 mm | - | 0 W/m² | - |
| 1777775406 | 13.89° C | 99% | 1009.6 hPa | 0 mm | - | 0 W/m² | - |
| 1777773906 | 13.89° C | 99% | 1009.8 hPa | 0.25 mm | - | 0 W/m² | - |
| 1777772406 | 13.89° C | 99% | 1009.7 hPa | 0.51 mm | - | 0 W/m² | - |
| 1777772106 | 13.89° C | 99% | 1010 hPa | 0.51 mm | - | 0 W/m² | - |
| 1777763705 | 14.44° C | 98% | 1010.6 hPa | 0 mm | - | 0 W/m² | - |
| 1777758305 | 15.56° C | 99% | 1011.4 hPa | 0.76 mm | - | 0 W/m² | - |
| 1777754405 | 16.11° C | 96% | 1011.4 hPa | 0.25 mm | - | 0 W/m² | - |
| 1777753205 | 16.11° C | 95% | 1011.2 hPa | 0 mm | - | 0 W/m² | - |
| 1777742705 | 18.33° C | 80% | 1010.9 hPa | 0 mm | - | 67 W/m² | - |
| 1777741805 | 18.33° C | 82% | 1010.9 hPa | 0 mm | - | 86 W/m² | - |
| 1777740006 | 18.89° C | 80% | 1011 hPa | 0 mm | - | 131 W/m² | - |
| 1777739106 | 18.33° C | 82% | 1011.1 hPa | 0 mm | - | 37 W/m² | - |
| 1777735805 | 18.33° C | 83% | 1011.9 hPa | 0 mm | - | 571 W/m² | - |
* Rain latest hour (hover to see other rain measurements)
** Current wind speed in m/s (hover to see current wind gust speed)